sensor_id;sensor_type;location;lat;lon;timestamp;P1;durP1;ratioP1;P2;durP2;ratioP2
4208;SDS011;36320;48.860;2.380;2022-08-03T00:00:01;11.88;;;1.73;;
4208;SDS011;36320;48.860;2.380;2022-08-03T00:02:27;7.82;;;1.80;;
4208;SDS011;36320;48.860;2.380;2022-08-03T00:04:53;8.05;;;1.50;;
4208;SDS011;36320;48.860;2.380;2022-08-03T00:07:19;8.30;;;1.60;;
4208;SDS011;36320;48.860;2.380;2022-08-03T00:09:44;7.90;;;1.60;;
4208;SDS011;36320;48.860;2.380;2022-08-03T00:12:10;7.40;;;1.50;;
4208;SDS011;36320;48.860;2.380;2022-08-03T00:14:36;9.03;;;1.70;;
4208;SDS011;36320;48.860;2.380;2022-08-03T00:17:02;18.77;;;2.00;;
4208;SDS011;36320;48.860;2.380;2022-08-03T00:19:27;8.75;;;1.70;;
4208;SDS011;36320;48.860;2.380;2022-08-03T00:21:53;7.88;;;1.45;;
4208;SDS011;36320;48.860;2.380;2022-08-03T00:24:19;11.67;;;1.70;;
4208;SDS011;36320;48.860;2.380;2022-08-03T00:26:45;8.75;;;1.60;;
4208;SDS011;36320;48.860;2.380;2022-08-03T00:29:11;8.70;;;1.40;;
4208;SDS011;36320;48.860;2.380;2022-08-03T00:31:37;11.63;;;2.53;;
4208;SDS011;36320;48.860;2.380;2022-08-03T00:34:03;9.48;;;1.30;;
4208;SDS011;36320;48.860;2.380;2022-08-03T00:36:28;7.72;;;1.60;;
4208;SDS011;36320;48.860;2.380;2022-08-03T00:38:54;10.30;;;1.70;;
4208;SDS011;36320;48.860;2.380;2022-08-03T00:41:20;6.90;;;1.30;;
4208;SDS011;36320;48.860;2.380;2022-08-03T00:43:46;7.20;;;1.30;;
4208;SDS011;36320;48.860;2.380;2022-08-03T00:46:13;7.30;;;1.70;;
4208;SDS011;36320;48.860;2.380;2022-08-03T00:48:39;8.18;;;1.60;;
4208;SDS011;36320;48.860;2.380;2022-08-03T00:51:04;8.30;;;1.50;;
4208;SDS011;36320;48.860;2.380;2022-08-03T00:53:31;7.50;;;1.50;;
4208;SDS011;36320;48.860;2.380;2022-08-03T00:55:58;9.05;;;1.88;;
4208;SDS011;36320;48.860;2.380;2022-08-03T00:58:24;9.18;;;1.70;;
4208;SDS011;36320;48.860;2.380;2022-08-03T01:00:50;8.80;;;1.70;;
4208;SDS011;36320;48.860;2.380;2022-08-03T01:03:16;9.70;;;1.60;;
4208;SDS011;36320;48.860;2.380;2022-08-03T01:08:22;9.00;;;1.40;;
4208;SDS011;36320;48.860;2.380;2022-08-03T01:11:13;6.72;;;1.40;;
4208;SDS011;36320;48.860;2.380;2022-08-03T01:14:01;9.37;;;1.40;;
4208;SDS011;36320;48.860;2.380;2022-08-03T01:16:43;6.85;;;1.38;;
4208;SDS011;36320;48.860;2.380;2022-08-03T01:30:40;11.40;;;1.67;;
4208;SDS011;36320;48.860;2.380;2022-08-03T01:33:15;6.80;;;1.20;;
4208;SDS011;36320;48.860;2.380;2022-08-03T01:35:45;9.00;;;1.30;;
4208;SDS011;36320;48.860;2.380;2022-08-03T01:38:21;10.00;;;1.50;;
4208;SDS011;36320;48.860;2.380;2022-08-03T01:40:52;11.82;;;1.65;;
4208;SDS011;36320;48.860;2.380;2022-08-03T01:43:20;10.00;;;1.40;;
4208;SDS011;36320;48.860;2.380;2022-08-03T01:45:55;8.40;;;1.60;;
4208;SDS011;36320;48.860;2.380;2022-08-03T01:48:21;7.35;;;1.30;;
4208;SDS011;36320;48.860;2.380;2022-08-03T01:50:47;10.47;;;2.20;;
4208;SDS011;36320;48.860;2.380;2022-08-03T01:53:15;7.93;;;1.40;;
4208;SDS011;36320;48.860;2.380;2022-08-03T01:55:43;10.23;;;1.60;;
4208;SDS011;36320;48.860;2.380;2022-08-03T01:58:12;7.10;;;1.40;;
4208;SDS011;36320;48.860;2.380;2022-08-03T02:00:40;8.07;;;1.50;;
4208;SDS011;36320;48.860;2.380;2022-08-03T02:03:07;9.20;;;1.30;;
4208;SDS011;36320;48.860;2.380;2022-08-03T02:05:36;7.30;;;1.23;;
4208;SDS011;36320;48.860;2.380;2022-08-03T02:08:04;9.05;;;1.50;;
4208;SDS011;36320;48.860;2.380;2022-08-03T02:10:32;13.70;;;1.50;;
4208;SDS011;36320;48.860;2.380;2022-08-03T02:13:00;7.30;;;1.40;;
4208;SDS011;36320;48.860;2.380;2022-08-03T02:15:27;6.30;;;1.10;;
4208;SDS011;36320;48.860;2.380;2022-08-03T02:17:54;6.57;;;1.20;;
4208;SDS011;36320;48.860;2.380;2022-08-03T02:20:22;9.00;;;1.50;;
4208;SDS011;36320;48.860;2.380;2022-08-03T02:22:49;8.38;;;1.20;;
4208;SDS011;36320;48.860;2.380;2022-08-03T02:25:14;10.83;;;2.13;;
4208;SDS011;36320;48.860;2.380;2022-08-03T02:27:50;8.55;;;1.30;;
4208;SDS011;36320;48.860;2.380;2022-08-03T02:30:20;9.30;;;1.40;;
4208;SDS011;36320;48.860;2.380;2022-08-03T02:32:50;8.00;;;1.20;;
4208;SDS011;36320;48.860;2.380;2022-08-03T02:35:20;8.20;;;1.38;;
4208;SDS011;36320;48.860;2.380;2022-08-03T02:37:49;10.18;;;1.42;;
4208;SDS011;36320;48.860;2.380;2022-08-03T02:40:17;11.90;;;1.65;;
4208;SDS011;36320;48.860;2.380;2022-08-03T02:42:45;8.75;;;1.35;;
4208;SDS011;36320;48.860;2.380;2022-08-03T02:45:13;7.20;;;1.40;;
4208;SDS011;36320;48.860;2.380;2022-08-03T02:47:42;8.60;;;1.40;;
4208;SDS011;36320;48.860;2.380;2022-08-03T02:50:11;7.00;;;1.20;;
4208;SDS011;36320;48.860;2.380;2022-08-03T02:52:38;7.00;;;1.10;;
4208;SDS011;36320;48.860;2.380;2022-08-03T02:55:06;8.02;;;1.50;;
4208;SDS011;36320;48.860;2.380;2022-08-03T02:57:33;10.10;;;1.33;;
4208;SDS011;36320;48.860;2.380;2022-08-03T03:00:01;8.82;;;1.23;;
4208;SDS011;36320;48.860;2.380;2022-08-03T03:02:28;10.20;;;1.23;;
4208;SDS011;36320;48.860;2.380;2022-08-03T03:04:55;12.70;;;1.50;;
4208;SDS011;36320;48.860;2.380;2022-08-03T03:07:23;9.10;;;1.30;;
4208;SDS011;36320;48.860;2.380;2022-08-03T03:09:50;8.10;;;1.20;;
4208;SDS011;36320;48.860;2.380;2022-08-03T03:12:17;10.50;;;1.40;;
4208;SDS011;36320;48.860;2.380;2022-08-03T03:14:43;13.30;;;1.50;;
4208;SDS011;36320;48.860;2.380;2022-08-03T03:17:10;10.20;;;3.10;;
4208;SDS011;36320;48.860;2.380;2022-08-03T03:19:37;7.00;;;1.40;;
4208;SDS011;36320;48.860;2.380;2022-08-03T03:22:05;7.90;;;1.40;;
4208;SDS011;36320;48.860;2.380;2022-08-03T03:24:32;7.30;;;1.30;;
4208;SDS011;36320;48.860;2.380;2022-08-03T03:27:00;8.20;;;1.50;;
4208;SDS011;36320;48.860;2.380;2022-08-03T03:29:27;16.50;;;1.30;;
4208;SDS011;36320;48.860;2.380;2022-08-03T03:31:54;6.70;;;1.20;;
4208;SDS011;36320;48.860;2.380;2022-08-03T03:34:21;6.70;;;1.30;;
4208;SDS011;36320;48.860;2.380;2022-08-03T03:36:47;7.45;;;1.25;;
4208;SDS011;36320;48.860;2.380;2022-08-03T03:39:13;10.73;;;1.67;;
4208;SDS011;36320;48.860;2.380;2022-08-03T03:41:38;10.00;;;1.30;;
4208;SDS011;36320;48.860;2.380;2022-08-03T03:44:04;6.40;;;1.10;;
4208;SDS011;36320;48.860;2.380;2022-08-03T03:46:30;6.20;;;1.00;;
4208;SDS011;36320;48.860;2.380;2022-08-03T03:48:56;7.80;;;1.40;;
4208;SDS011;36320;48.860;2.380;2022-08-03T03:51:22;7.00;;;1.20;;
4208;SDS011;36320;48.860;2.380;2022-08-03T03:53:54;7.50;;;1.30;;
4208;SDS011;36320;48.860;2.380;2022-08-03T03:56:24;7.50;;;1.40;;
4208;SDS011;36320;48.860;2.380;2022-08-03T03:58:50;8.00;;;1.40;;
4208;SDS011;36320;48.860;2.380;2022-08-03T04:01:16;8.10;;;1.30;;
4208;SDS011;36320;48.860;2.380;2022-08-03T04:03:42;7.20;;;1.60;;
4208;SDS011;36320;48.860;2.380;2022-08-03T04:06:08;13.68;;;1.42;;
4208;SDS011;36320;48.860;2.380;2022-08-03T04:08:52;8.63;;;1.50;;
4208;SDS011;36320;48.860;2.380;2022-08-03T04:11:57;10.48;;;1.83;;
4208;SDS011;36320;48.860;2.380;2022-08-03T04:14:25;6.90;;;1.20;;
4208;SDS011;36320;48.860;2.380;2022-08-03T04:16:58;6.40;;;1.10;;
4208;SDS011;36320;48.860;2.380;2022-08-03T04:19:29;8.10;;;1.30;;
4208;SDS011;36320;48.860;2.380;2022-08-03T04:22:00;6.60;;;1.20;;
4208;SDS011;36320;48.860;2.380;2022-08-03T04:24:32;10.70;;;1.90;;
4208;SDS011;36320;48.860;2.380;2022-08-03T04:27:11;9.03;;;1.40;;
4208;SDS011;36320;48.860;2.380;2022-08-03T04:29:40;7.13;;;1.30;;
4208;SDS011;36320;48.860;2.380;2022-08-03T04:32:09;6.70;;;1.10;;
4208;SDS011;36320;48.860;2.380;2022-08-03T04:34:37;8.40;;;1.33;;
4208;SDS011;36320;48.860;2.380;2022-08-03T04:37:04;10.27;;;1.25;;
4208;SDS011;36320;48.860;2.380;2022-08-03T04:39:35;10.70;;;1.50;;
4208;SDS011;36320;48.860;2.380;2022-08-03T04:42:02;7.70;;;1.92;;
4208;SDS011;36320;48.860;2.380;2022-08-03T04:44:31;10.00;;;1.20;;
4208;SDS011;36320;48.860;2.380;2022-08-03T04:47:01;12.98;;;1.58;;
4208;SDS011;36320;48.860;2.380;2022-08-03T04:49:27;12.90;;;1.90;;
4208;SDS011;36320;48.860;2.380;2022-08-03T04:51:53;8.57;;;1.40;;
4208;SDS011;36320;48.860;2.380;2022-08-03T04:54:19;13.40;;;1.60;;
4208;SDS011;36320;48.860;2.380;2022-08-03T04:56:45;6.90;;;1.20;;
4208;SDS011;36320;48.860;2.380;2022-08-03T04:59:11;10.37;;;1.60;;
4208;SDS011;36320;48.860;2.380;2022-08-03T05:01:38;18.10;;;2.10;;
4208;SDS011;36320;48.860;2.380;2022-08-03T05:04:08;8.30;;;1.30;;
4208;SDS011;36320;48.860;2.380;2022-08-03T05:06:33;16.58;;;1.70;;
4208;SDS011;36320;48.860;2.380;2022-08-03T05:09:00;11.65;;;1.40;;
4208;SDS011;36320;48.860;2.380;2022-08-03T05:11:27;7.85;;;1.60;;
4208;SDS011;36320;48.860;2.380;2022-08-03T05:13:53;8.30;;;1.40;;
4208;SDS011;36320;48.860;2.380;2022-08-03T05:16:18;10.27;;;1.20;;
4208;SDS011;36320;48.860;2.380;2022-08-03T05:18:44;6.97;;;1.37;;
4208;SDS011;36320;48.860;2.380;2022-08-03T05:21:10;7.30;;;1.40;;
4208;SDS011;36320;48.860;2.380;2022-08-03T05:23:40;7.85;;;1.17;;
4208;SDS011;36320;48.860;2.380;2022-08-03T05:26:06;10.35;;;1.58;;
4208;SDS011;36320;48.860;2.380;2022-08-03T05:28:32;9.17;;;1.60;;
4208;SDS011;36320;48.860;2.380;2022-08-03T05:30:58;8.43;;;1.50;;
4208;SDS011;36320;48.860;2.380;2022-08-03T05:33:24;14.02;;;1.65;;
4208;SDS011;36320;48.860;2.380;2022-08-03T05:35:49;9.10;;;1.40;;
4208;SDS011;36320;48.860;2.380;2022-08-03T05:38:15;6.80;;;1.30;;
4208;SDS011;36320;48.860;2.380;2022-08-03T05:40:41;7.00;;;1.30;;
4208;SDS011;36320;48.860;2.380;2022-08-03T05:43:11;7.88;;;1.80;;
4208;SDS011;36320;48.860;2.380;2022-08-03T05:45:36;9.07;;;2.00;;
4208;SDS011;36320;48.860;2.380;2022-08-03T05:48:03;7.03;;;1.33;;
4208;SDS011;36320;48.860;2.380;2022-08-03T05:50:31;6.97;;;1.30;;
4208;SDS011;36320;48.860;2.380;2022-08-03T05:52:56;9.87;;;1.60;;
4208;SDS011;36320;48.860;2.380;2022-08-03T05:55:22;7.32;;;1.50;;
4208;SDS011;36320;48.860;2.380;2022-08-03T05:57:49;8.05;;;1.70;;
4208;SDS011;36320;48.860;2.380;2022-08-03T06:00:15;13.30;;;2.30;;
4208;SDS011;36320;48.860;2.380;2022-08-03T06:02:41;7.85;;;1.60;;
4208;SDS011;36320;48.860;2.380;2022-08-03T06:05:07;6.50;;;1.30;;
4208;SDS011;36320;48.860;2.380;2022-08-03T06:07:33;7.07;;;1.40;;
4208;SDS011;36320;48.860;2.380;2022-08-03T06:09:59;11.00;;;1.50;;
4208;SDS011;36320;48.860;2.380;2022-08-03T06:12:28;8.03;;;1.43;;
4208;SDS011;36320;48.860;2.380;2022-08-03T06:14:54;10.52;;;1.42;;
4208;SDS011;36320;48.860;2.380;2022-08-03T06:17:20;7.50;;;1.52;;
4208;SDS011;36320;48.860;2.380;2022-08-03T06:19:46;12.65;;;1.70;;
4208;SDS011;36320;48.860;2.380;2022-08-03T06:22:15;14.77;;;1.60;;
4208;SDS011;36320;48.860;2.380;2022-08-03T06:24:41;18.02;;;1.63;;
4208;SDS011;36320;48.860;2.380;2022-08-03T06:27:08;10.13;;;2.50;;
4208;SDS011;36320;48.860;2.380;2022-08-03T06:29:33;7.60;;;1.30;;
4208;SDS011;36320;48.860;2.380;2022-08-03T06:31:59;7.30;;;1.43;;
4208;SDS011;36320;48.860;2.380;2022-08-03T06:34:25;8.90;;;1.70;;
4208;SDS011;36320;48.860;2.380;2022-08-03T06:36:51;7.43;;;1.55;;
4208;SDS011;36320;48.860;2.380;2022-08-03T06:39:16;7.38;;;1.60;;
4208;SDS011;36320;48.860;2.380;2022-08-03T06:41:42;7.73;;;1.60;;
4208;SDS011;36320;48.860;2.380;2022-08-03T06:44:08;12.20;;;1.50;;
4208;SDS011;36320;48.860;2.380;2022-08-03T06:46:33;7.47;;;1.40;;
4208;SDS011;36320;48.860;2.380;2022-08-03T06:48:59;7.77;;;1.80;;
4208;SDS011;36320;48.860;2.380;2022-08-03T06:51:25;9.60;;;2.15;;
4208;SDS011;36320;48.860;2.380;2022-08-03T06:53:50;7.53;;;1.90;;
4208;SDS011;36320;48.860;2.380;2022-08-03T06:56:16;22.60;;;6.80;;
4208;SDS011;36320;48.860;2.380;2022-08-03T06:58:44;8.88;;;1.65;;
4208;SDS011;36320;48.860;2.380;2022-08-03T07:01:11;17.13;;;2.30;;
4208;SDS011;36320;48.860;2.380;2022-08-03T07:03:37;8.05;;;1.70;;
4208;SDS011;36320;48.860;2.380;2022-08-03T07:06:05;10.68;;;1.50;;
4208;SDS011;36320;48.860;2.380;2022-08-03T07:08:31;11.48;;;1.75;;
4208;SDS011;36320;48.860;2.380;2022-08-03T07:10:56;7.50;;;1.52;;
4208;SDS011;36320;48.860;2.380;2022-08-03T07:13:22;8.00;;;1.58;;
4208;SDS011;36320;48.860;2.380;2022-08-03T07:15:48;8.95;;;1.50;;
4208;SDS011;36320;48.860;2.380;2022-08-03T07:18:14;8.33;;;1.50;;
4208;SDS011;36320;48.860;2.380;2022-08-03T07:20:39;9.30;;;1.50;;
4208;SDS011;36320;48.860;2.380;2022-08-03T07:23:06;14.30;;;1.80;;
4208;SDS011;36320;48.860;2.380;2022-08-03T07:25:33;7.72;;;1.30;;
4208;SDS011;36320;48.860;2.380;2022-08-03T07:27:59;6.90;;;1.30;;
4208;SDS011;36320;48.860;2.380;2022-08-03T07:30:25;8.70;;;1.50;;
4208;SDS011;36320;48.860;2.380;2022-08-03T07:32:51;7.28;;;1.50;;
4208;SDS011;36320;48.860;2.380;2022-08-03T07:35:16;7.60;;;1.50;;
4208;SDS011;36320;48.860;2.380;2022-08-03T07:37:43;9.43;;;1.95;;
4208;SDS011;36320;48.860;2.380;2022-08-03T07:40:08;7.30;;;1.50;;
4208;SDS011;36320;48.860;2.380;2022-08-03T07:42:37;9.40;;;1.60;;
4208;SDS011;36320;48.860;2.380;2022-08-03T07:45:02;11.60;;;1.60;;
4208;SDS011;36320;48.860;2.380;2022-08-03T07:47:29;9.30;;;1.83;;
4208;SDS011;36320;48.860;2.380;2022-08-03T07:49:56;9.65;;;1.92;;
4208;SDS011;36320;48.860;2.380;2022-08-03T07:52:23;11.00;;;1.90;;
4208;SDS011;36320;48.860;2.380;2022-08-03T07:55:07;7.32;;;1.40;;
4208;SDS011;36320;48.860;2.380;2022-08-03T07:57:34;9.93;;;1.65;;
4208;SDS011;36320;48.860;2.380;2022-08-03T08:00:01;7.68;;;1.50;;
4208;SDS011;36320;48.860;2.380;2022-08-03T08:02:30;8.20;;;2.05;;
4208;SDS011;36320;48.860;2.380;2022-08-03T08:04:56;10.05;;;1.90;;
4208;SDS011;36320;48.860;2.380;2022-08-03T08:07:22;8.10;;;1.60;;
4208;SDS011;36320;48.860;2.380;2022-08-03T08:09:49;10.35;;;1.95;;
4208;SDS011;36320;48.860;2.380;2022-08-03T08:12:16;7.20;;;1.70;;
4208;SDS011;36320;48.860;2.380;2022-08-03T08:14:41;8.97;;;1.63;;
4208;SDS011;36320;48.860;2.380;2022-08-03T08:17:11;11.20;;;1.80;;
4208;SDS011;36320;48.860;2.380;2022-08-03T08:19:37;9.32;;;1.50;;
4208;SDS011;36320;48.860;2.380;2022-08-03T08:22:02;8.40;;;1.80;;
4208;SDS011;36320;48.860;2.380;2022-08-03T08:24:28;10.98;;;1.85;;
4208;SDS011;36320;48.860;2.380;2022-08-03T08:26:55;9.82;;;2.10;;
4208;SDS011;36320;48.860;2.380;2022-08-03T08:29:21;11.30;;;1.90;;
4208;SDS011;36320;48.860;2.380;2022-08-03T08:31:47;8.40;;;2.30;;
4208;SDS011;36320;48.860;2.380;2022-08-03T08:34:14;8.07;;;1.80;;
4208;SDS011;36320;48.860;2.380;2022-08-03T08:36:40;10.20;;;1.90;;
4208;SDS011;36320;48.860;2.380;2022-08-03T08:39:06;7.97;;;1.70;;
4208;SDS011;36320;48.860;2.380;2022-08-03T08:41:33;10.52;;;1.92;;
4208;SDS011;36320;48.860;2.380;2022-08-03T08:44:02;8.57;;;1.65;;
4208;SDS011;36320;48.860;2.380;2022-08-03T08:46:32;6.90;;;1.50;;
4208;SDS011;36320;48.860;2.380;2022-08-03T08:48:58;10.25;;;1.92;;
4208;SDS011;36320;48.860;2.380;2022-08-03T08:51:27;13.90;;;2.40;;
4208;SDS011;36320;48.860;2.380;2022-08-03T08:53:55;7.40;;;1.67;;
4208;SDS011;36320;48.860;2.380;2022-08-03T08:56:25;6.87;;;1.40;;
4208;SDS011;36320;48.860;2.380;2022-08-03T08:58:52;7.87;;;1.50;;
4208;SDS011;36320;48.860;2.380;2022-08-03T09:01:22;7.70;;;1.50;;
4208;SDS011;36320;48.860;2.380;2022-08-03T09:03:49;9.77;;;1.60;;
4208;SDS011;36320;48.860;2.380;2022-08-03T09:06:15;8.90;;;2.00;;
4208;SDS011;36320;48.860;2.380;2022-08-03T09:08:41;9.38;;;1.60;;
4208;SDS011;36320;48.860;2.380;2022-08-03T09:11:07;16.52;;;2.50;;
4208;SDS011;36320;48.860;2.380;2022-08-03T09:13:33;11.60;;;1.70;;
4208;SDS011;36320;48.860;2.380;2022-08-03T09:18:49;9.73;;;2.08;;
4208;SDS011;36320;48.860;2.380;2022-08-03T09:23:52;8.32;;;1.83;;
4208;SDS011;36320;48.860;2.380;2022-08-03T09:26:25;7.00;;;1.60;;
4208;SDS011;36320;48.860;2.380;2022-08-03T09:28:53;8.70;;;1.70;;
4208;SDS011;36320;48.860;2.380;2022-08-03T09:31:46;17.23;;;1.80;;
4208;SDS011;36320;48.860;2.380;2022-08-03T09:34:16;10.52;;;1.63;;
4208;SDS011;36320;48.860;2.380;2022-08-03T09:36:46;7.82;;;1.38;;
4208;SDS011;36320;48.860;2.380;2022-08-03T09:39:17;8.77;;;1.65;;
4208;SDS011;36320;48.860;2.380;2022-08-03T09:41:46;6.63;;;1.37;;
4208;SDS011;36320;48.860;2.380;2022-08-03T09:44:37;15.50;;;2.00;;
4208;SDS011;36320;48.860;2.380;2022-08-03T09:47:12;7.10;;;1.40;;
4208;SDS011;36320;48.860;2.380;2022-08-03T09:49:39;8.82;;;1.45;;
4208;SDS011;36320;48.860;2.380;2022-08-03T09:52:16;7.90;;;1.80;;
4208;SDS011;36320;48.860;2.380;2022-08-03T09:54:43;7.10;;;1.60;;
4208;SDS011;36320;48.860;2.380;2022-08-03T09:57:19;6.30;;;1.20;;
4208;SDS011;36320;48.860;2.380;2022-08-03T09:59:48;7.15;;;1.60;;
4208;SDS011;36320;48.860;2.380;2022-08-03T10:02:25;10.57;;;1.77;;
4208;SDS011;36320;48.860;2.380;2022-08-03T10:04:52;6.60;;;1.50;;
4208;SDS011;36320;48.860;2.380;2022-08-03T10:07:22;6.40;;;1.30;;
4208;SDS011;36320;48.860;2.380;2022-08-03T10:09:59;10.10;;;1.50;;
4208;SDS011;36320;48.860;2.380;2022-08-03T10:12:26;7.05;;;1.40;;
4208;SDS011;36320;48.860;2.380;2022-08-03T10:14:52;8.23;;;1.80;;
4208;SDS011;36320;48.860;2.380;2022-08-03T10:17:22;8.25;;;1.65;;
4208;SDS011;36320;48.860;2.380;2022-08-03T10:19:47;6.00;;;1.10;;
4208;SDS011;36320;48.860;2.380;2022-08-03T10:27:38;10.00;;;1.30;;
4208;SDS011;36320;48.860;2.380;2022-08-03T10:30:09;10.50;;;1.70;;
4208;SDS011;36320;48.860;2.380;2022-08-03T10:32:48;6.70;;;1.30;;
4208;SDS011;36320;48.860;2.380;2022-08-03T10:35:22;7.70;;;1.60;;
4208;SDS011;36320;48.860;2.380;2022-08-03T10:40:22;7.05;;;1.50;;
4208;SDS011;36320;48.860;2.380;2022-08-03T10:42:50;7.20;;;1.65;;
4208;SDS011;36320;48.860;2.380;2022-08-03T10:45:22;10.35;;;1.50;;
4208;SDS011;36320;48.860;2.380;2022-08-03T10:47:50;8.00;;;2.28;;
4208;SDS011;36320;48.860;2.380;2022-08-03T10:50:22;9.48;;;2.67;;
4208;SDS011;36320;48.860;2.380;2022-08-03T10:53:01;7.05;;;1.65;;
4208;SDS011;36320;48.860;2.380;2022-08-03T10:55:37;11.05;;;1.88;;
4208;SDS011;36320;48.860;2.380;2022-08-03T11:01:06;6.55;;;1.30;;
4208;SDS011;36320;48.860;2.380;2022-08-03T11:03:33;6.30;;;1.30;;
4208;SDS011;36320;48.860;2.380;2022-08-03T11:06:22;6.30;;;1.30;;
4208;SDS011;36320;48.860;2.380;2022-08-03T11:11:34;9.00;;;1.20;;
4208;SDS011;36320;48.860;2.380;2022-08-03T11:16:35;7.10;;;1.40;;
4208;SDS011;36320;48.860;2.380;2022-08-03T11:19:05;8.47;;;1.30;;
4208;SDS011;36320;48.860;2.380;2022-08-03T11:35:16;7.20;;;1.30;;
4208;SDS011;36320;48.860;2.380;2022-08-03T11:43:02;7.05;;;1.48;;
4208;SDS011;36320;48.860;2.380;2022-08-03T11:48:25;11.23;;;1.63;;
4208;SDS011;36320;48.860;2.380;2022-08-03T11:50:57;9.60;;;1.30;;
4208;SDS011;36320;48.860;2.380;2022-08-03T11:53:27;7.95;;;1.30;;
4208;SDS011;36320;48.860;2.380;2022-08-03T11:55:52;8.40;;;1.30;;
4208;SDS011;36320;48.860;2.380;2022-08-03T11:58:22;7.20;;;1.40;;
4208;SDS011;36320;48.860;2.380;2022-08-03T12:00:48;10.43;;;1.33;;
4208;SDS011;36320;48.860;2.380;2022-08-03T12:03:15;7.13;;;1.70;;
4208;SDS011;36320;48.860;2.380;2022-08-03T12:05:51;6.35;;;1.38;;
4208;SDS011;36320;48.860;2.380;2022-08-03T12:08:27;6.40;;;1.20;;
4208;SDS011;36320;48.860;2.380;2022-08-03T12:10:58;7.60;;;1.30;;
4208;SDS011;36320;48.860;2.380;2022-08-03T12:13:25;7.95;;;1.38;;
4208;SDS011;36320;48.860;2.380;2022-08-03T12:15:54;6.47;;;1.30;;
4208;SDS011;36320;48.860;2.380;2022-08-03T12:18:21;9.03;;;2.80;;
4208;SDS011;36320;48.860;2.380;2022-08-03T12:20:51;7.68;;;1.85;;
4208;SDS011;36320;48.860;2.380;2022-08-03T12:23:27;6.90;;;1.30;;
4208;SDS011;36320;48.860;2.380;2022-08-03T12:25:53;6.40;;;1.20;;
4208;SDS011;36320;48.860;2.380;2022-08-03T12:28:26;8.90;;;1.60;;
4208;SDS011;36320;48.860;2.380;2022-08-03T12:30:52;6.47;;;1.45;;
4208;SDS011;36320;48.860;2.380;2022-08-03T12:33:19;7.43;;;1.30;;
4208;SDS011;36320;48.860;2.380;2022-08-03T12:36:06;6.90;;;1.45;;
4208;SDS011;36320;48.860;2.380;2022-08-03T12:38:34;7.17;;;1.53;;
4208;SDS011;36320;48.860;2.380;2022-08-03T12:41:06;7.20;;;1.40;;
4208;SDS011;36320;48.860;2.380;2022-08-03T12:43:48;8.00;;;1.70;;
4208;SDS011;36320;48.860;2.380;2022-08-03T12:46:16;6.38;;;1.20;;
4208;SDS011;36320;48.860;2.380;2022-08-03T12:49:00;6.28;;;1.30;;
4208;SDS011;36320;48.860;2.380;2022-08-03T12:51:29;7.05;;;1.58;;
4208;SDS011;36320;48.860;2.380;2022-08-03T12:53:56;7.57;;;1.40;;
4208;SDS011;36320;48.860;2.380;2022-08-03T12:56:23;7.10;;;1.30;;
4208;SDS011;36320;48.860;2.380;2022-08-03T12:58:50;7.47;;;1.50;;
4208;SDS011;36320;48.860;2.380;2022-08-03T13:01:16;6.47;;;1.40;;
4208;SDS011;36320;48.860;2.380;2022-08-03T13:03:47;9.00;;;1.60;;
4208;SDS011;36320;48.860;2.380;2022-08-03T13:06:14;7.30;;;1.20;;
4208;SDS011;36320;48.860;2.380;2022-08-03T13:08:49;6.53;;;1.25;;
4208;SDS011;36320;48.860;2.380;2022-08-03T13:11:32;7.03;;;1.70;;
4208;SDS011;36320;48.860;2.380;2022-08-03T13:14:00;6.70;;;1.30;;
4208;SDS011;36320;48.860;2.380;2022-08-03T13:16:26;6.10;;;1.15;;
4208;SDS011;36320;48.860;2.380;2022-08-03T13:18:52;6.17;;;1.27;;
4208;SDS011;36320;48.860;2.380;2022-08-03T13:21:19;8.15;;;1.83;;
4208;SDS011;36320;48.860;2.380;2022-08-03T13:23:45;6.80;;;1.50;;
4208;SDS011;36320;48.860;2.380;2022-08-03T13:26:12;7.40;;;1.30;;
4208;SDS011;36320;48.860;2.380;2022-08-03T13:28:38;11.60;;;1.70;;
4208;SDS011;36320;48.860;2.380;2022-08-03T13:31:05;5.90;;;1.10;;
4208;SDS011;36320;48.860;2.380;2022-08-03T13:33:31;7.00;;;1.20;;
4208;SDS011;36320;48.860;2.380;2022-08-03T13:35:57;9.20;;;1.70;;
4208;SDS011;36320;48.860;2.380;2022-08-03T13:38:22;7.20;;;1.50;;
4208;SDS011;36320;48.860;2.380;2022-08-03T13:40:50;6.10;;;1.20;;
4208;SDS011;36320;48.860;2.380;2022-08-03T13:43:19;6.90;;;1.20;;
4208;SDS011;36320;48.860;2.380;2022-08-03T13:45:46;6.55;;;1.30;;
4208;SDS011;36320;48.860;2.380;2022-08-03T13:48:12;13.30;;;1.50;;
4208;SDS011;36320;48.860;2.380;2022-08-03T13:50:37;7.95;;;1.40;;
4208;SDS011;36320;48.860;2.380;2022-08-03T13:53:03;16.40;;;1.60;;
4208;SDS011;36320;48.860;2.380;2022-08-03T13:55:29;9.80;;;1.30;;
4208;SDS011;36320;48.860;2.380;2022-08-03T13:57:55;6.53;;;1.20;;
4208;SDS011;36320;48.860;2.380;2022-08-03T14:00:20;6.68;;;1.15;;
4208;SDS011;36320;48.860;2.380;2022-08-03T14:02:51;7.93;;;1.20;;
4208;SDS011;36320;48.860;2.380;2022-08-03T14:05:18;6.65;;;1.38;;
4208;SDS011;36320;48.860;2.380;2022-08-03T14:07:43;8.32;;;1.60;;
4208;SDS011;36320;48.860;2.380;2022-08-03T14:10:09;8.98;;;1.30;;
4208;SDS011;36320;48.860;2.380;2022-08-03T17:46:49;8.60;;;1.67;;
4208;SDS011;36320;48.860;2.380;2022-08-03T17:49:16;8.90;;;1.50;;
4208;SDS011;36320;48.860;2.380;2022-08-03T17:52:04;6.68;;;1.63;;
4208;SDS011;36320;48.860;2.380;2022-08-03T18:00:39;8.60;;;1.83;;
4208;SDS011;36320;48.860;2.380;2022-08-03T18:03:36;6.80;;;1.60;;
4208;SDS011;36320;48.860;2.380;2022-08-03T18:06:14;7.20;;;1.57;;
4208;SDS011;36320;48.860;2.380;2022-08-03T18:08:49;8.65;;;1.98;;
4208;SDS011;36320;48.860;2.380;2022-08-03T18:11:20;8.93;;;2.10;;
4208;SDS011;36320;48.860;2.380;2022-08-03T18:19:26;8.57;;;2.53;;
4208;SDS011;36320;48.860;2.380;2022-08-03T18:21:53;7.50;;;1.60;;
4208;SDS011;36320;48.860;2.380;2022-08-03T18:24:19;8.80;;;2.40;;
4208;SDS011;36320;48.860;2.380;2022-08-03T18:26:47;10.25;;;2.42;;
4208;SDS011;36320;48.860;2.380;2022-08-03T18:29:16;15.23;;;3.77;;
4208;SDS011;36320;48.860;2.380;2022-08-03T18:31:43;17.58;;;4.00;;
4208;SDS011;36320;48.860;2.380;2022-08-03T18:34:09;17.75;;;3.03;;
4208;SDS011;36320;48.860;2.380;2022-08-03T18:36:39;9.90;;;2.88;;
4208;SDS011;36320;48.860;2.380;2022-08-03T18:39:13;9.80;;;2.90;;
4208;SDS011;36320;48.860;2.380;2022-08-03T18:41:39;8.87;;;2.30;;
4208;SDS011;36320;48.860;2.380;2022-08-03T18:44:05;11.03;;;2.00;;
4208;SDS011;36320;48.860;2.380;2022-08-03T18:51:33;8.82;;;2.35;;
4208;SDS011;36320;48.860;2.380;2022-08-03T18:54:06;8.32;;;2.20;;
4208;SDS011;36320;48.860;2.380;2022-08-03T19:02:05;16.15;;;3.00;;
4208;SDS011;36320;48.860;2.380;2022-08-03T19:04:47;12.40;;;3.60;;
4208;SDS011;36320;48.860;2.380;2022-08-03T19:07:24;12.23;;;3.53;;
4208;SDS011;36320;48.860;2.380;2022-08-03T19:09:57;12.70;;;2.80;;
4208;SDS011;36320;48.860;2.380;2022-08-03T19:12:30;12.15;;;3.15;;
4208;SDS011;36320;48.860;2.380;2022-08-03T19:15:13;10.77;;;2.80;;
4208;SDS011;36320;48.860;2.380;2022-08-03T19:17:55;14.70;;;3.00;;
4208;SDS011;36320;48.860;2.380;2022-08-03T19:20:23;14.00;;;4.90;;
4208;SDS011;36320;48.860;2.380;2022-08-03T19:22:51;14.90;;;5.17;;
4208;SDS011;36320;48.860;2.380;2022-08-03T19:25:21;11.13;;;3.23;;
4208;SDS011;36320;48.860;2.380;2022-08-03T19:27:48;10.75;;;2.40;;
4208;SDS011;36320;48.860;2.380;2022-08-03T19:30:14;14.60;;;2.87;;
4208;SDS011;36320;48.860;2.380;2022-08-03T19:33:08;10.77;;;3.10;;
4208;SDS011;36320;48.860;2.380;2022-08-03T19:35:39;12.00;;;3.40;;
4208;SDS011;36320;48.860;2.380;2022-08-03T19:38:07;14.90;;;3.53;;
4208;SDS011;36320;48.860;2.380;2022-08-03T19:40:33;18.60;;;4.65;;
4208;SDS011;36320;48.860;2.380;2022-08-03T19:43:02;11.48;;;2.97;;
4208;SDS011;36320;48.860;2.380;2022-08-03T19:45:33;10.35;;;3.40;;
4208;SDS011;36320;48.860;2.380;2022-08-03T19:48:05;10.00;;;2.90;;
4208;SDS011;36320;48.860;2.380;2022-08-03T19:50:33;9.73;;;2.70;;
4208;SDS011;36320;48.860;2.380;2022-08-03T19:53:06;10.05;;;2.67;;
4208;SDS011;36320;48.860;2.380;2022-08-03T19:55:39;9.40;;;2.75;;
4208;SDS011;36320;48.860;2.380;2022-08-03T19:58:06;13.90;;;4.28;;
4208;SDS011;36320;48.860;2.380;2022-08-03T20:00:34;14.90;;;4.45;;